Time;durP1;ratioP1;P1;durP2;ratioP2;P2;SDS_P1;SDS_P2;PMS_P1;PMS_P2;Temp;Humidity;BMP_temperature;BMP_pressure;BME280_temperature;BME280_humidity;BME280_pressure;Samples;Min_cycle;Max_cycle;Signal;HPM_P1;HPM_P2
2022/09/09 00:01:24;;;;;;;31.08;11.00;;;;;;;;;;4931291;29;20404;-90
2022/09/09 00:03:56;;;;;;;23.38;10.88;;;;;;;;;;4947623;28;20122;-89
2022/09/09 00:06:29;;;;;;;24.52;10.32;;;;;;;;;;4950543;29;20049;-89
2022/09/09 00:09:16;;;;;;;24.30;12.68;;;;;;;;;;4934306;29;20047;-89
2022/09/09 00:11:42;;;;;;;29.52;11.30;;;;;;;;;;4949577;28;20867;-92
2022/09/09 00:14:17;;;;;;;26.55;10.95;;;;;;;;;;4934110;29;20055;-91
2022/09/09 00:16:47;;;;;;;20.77;11.83;;;;;;;;;;4933378;29;20036;-91
2022/09/09 00:19:29;;;;;;;26.25;12.05;;;;;;;;;;4934228;29;20497;-91
2022/09/09 00:22:07;;;;;;;29.30;13.88;;;;;;;;;;4948098;28;20869;-92
2022/09/09 00:24:36;;;;;;;32.25;13.90;;;;;;;;;;4948337;28;20544;-91
2022/09/09 00:27:06;;;;;;;27.48;15.25;;;;;;;;;;4933863;29;20078;-91
2022/09/09 00:29:47;;;;;;;34.92;15.02;;;;;;;;;;4937284;29;20038;-91
2022/09/09 00:32:17;;;;;;;30.08;14.32;;;;;;;;;;4929948;29;20066;-90
2022/09/09 00:34:57;;;;;;;34.35;14.75;;;;;;;;;;4933964;29;20063;-90
2022/09/09 00:37:25;;;;;;;27.30;13.90;;;;;;;;;;4933038;28;20046;-90
2022/09/09 00:39:54;;;;;;;33.13;14.73;;;;;;;;;;4938145;29;20057;-91
2022/09/09 00:42:39;;;;;;;31.38;14.05;;;;;;;;;;4934179;28;20025;-90
2022/09/09 00:45:15;;;;;;;27.38;12.82;;;;;;;;;;4934897;29;20188;-90
2022/09/09 00:47:45;;;;;;;23.75;11.18;;;;;;;;;;4931923;28;20375;-90
2022/09/09 00:50:11;;;;;;;27.85;11.80;;;;;;;;;;4936671;29;20102;-90
2022/09/09 00:52:51;;;;;;;31.25;12.57;;;;;;;;;;4932337;29;20058;-91
2022/09/09 00:55:25;;;;;;;23.73;11.75;;;;;;;;;;4945343;28;20047;-91
2022/09/09 00:57:52;;;;;;;27.27;11.15;;;;;;;;;;4929304;28;20216;-91
2022/09/09 01:00:23;;;;;;;23.15;11.30;;;;;;;;;;4934429;29;20060;-91
2022/09/09 01:02:56;;;;;;;29.42;10.68;;;;;;;;;;4949001;28;20039;-90
2022/09/09 01:05:23;;;;;;;22.92;11.15;;;;;;;;;;4936660;28;20467;-91
2022/09/09 01:07:50;;;;;;;21.10;10.57;;;;;;;;;;4936578;29;20804;-91
2022/09/09 01:10:41;;;;;;;19.88;9.73;;;;;;;;;;4930099;29;20566;-91
2022/09/09 01:13:23;;;;;;;24.65;9.98;;;;;;;;;;4944781;28;20039;-91
2022/09/09 01:15:50;;;;;;;21.30;10.25;;;;;;;;;;4931576;28;20509;-91
2022/09/09 01:18:30;;;;;;;23.90;9.57;;;;;;;;;;4953038;28;20090;-91
2022/09/09 01:21:03;;;;;;;25.45;9.88;;;;;;;;;;4933461;29;20039;-91
2022/09/09 01:23:36;;;;;;;23.05;10.23;;;;;;;;;;4934767;28;20051;-91
2022/09/09 01:26:37;;;;;;;22.27;8.82;;;;;;;;;;4926973;29;20031;-92
2022/09/09 01:29:07;;;;;;;17.20;8.68;;;;;;;;;;4858597;29;20059;-91
2022/09/09 01:31:37;;;;;;;20.20;9.85;;;;;;;;;;4916983;29;20039;-91
2022/09/09 01:34:05;;;;;;;19.58;10.50;;;;;;;;;;4930947;29;20057;-92
2022/09/09 01:36:39;;;;;;;27.25;9.52;;;;;;;;;;4920131;29;20449;-92
2022/09/09 01:39:05;;;;;;;21.25;9.38;;;;;;;;;;4946663;28;22980;-91
2022/09/09 01:41:31;;;;;;;27.75;11.70;;;;;;;;;;4919063;29;20130;-92
2022/09/09 01:43:57;;;;;;;24.08;11.32;;;;;;;;;;4918859;29;20038;-91
2022/09/09 01:46:24;;;;;;;35.70;11.73;;;;;;;;;;4917603;29;20091;-92
2022/09/09 01:48:53;;;;;;;25.45;11.55;;;;;;;;;;4930909;29;20027;-92
2022/09/09 01:51:19;;;;;;;24.30;12.18;;;;;;;;;;4928832;29;20057;-91
2022/09/09 01:53:46;;;;;;;23.73;11.05;;;;;;;;;;4930347;29;20035;-92
2022/09/09 01:56:24;;;;;;;26.27;11.43;;;;;;;;;;4916044;29;20046;-93
2022/09/09 01:58:57;;;;;;;17.77;10.23;;;;;;;;;;4940617;28;20119;-92
2022/09/09 02:01:41;;;;;;;24.95;9.95;;;;;;;;;;4932806;29;20439;-91
2022/09/09 02:04:14;;;;;;;19.15;9.85;;;;;;;;;;4928446;29;20027;-91
2022/09/09 02:06:41;;;;;;;24.83;10.65;;;;;;;;;;4929516;29;20063;-94
2022/09/09 02:09:11;;;;;;;29.40;11.32;;;;;;;;;;4927638;29;20032;-94
2022/09/09 02:11:41;;;;;;;29.27;10.18;;;;;;;;;;4946403;28;20059;-95
2022/09/09 02:14:18;;;;;;;27.88;11.10;;;;;;;;;;4930770;29;20082;-94
2022/09/09 02:16:48;;;;;;;26.38;11.70;;;;;;;;;;4935887;29;20032;-94
2022/09/09 02:19:17;;;;;;;25.05;11.73;;;;;;;;;;4929475;29;20046;-93
2022/09/09 02:21:44;;;;;;;28.23;10.45;;;;;;;;;;4933004;28;20039;-93
2022/09/09 02:24:12;;;;;;;24.35;11.13;;;;;;;;;;4928800;29;20043;-93
2022/09/09 02:26:40;;;;;;;40.60;12.25;;;;;;;;;;4931526;29;20023;-92
2022/09/09 02:29:09;;;;;;;31.48;14.65;;;;;;;;;;4931165;29;20032;-92
2022/09/09 02:31:37;;;;;;;29.98;13.40;;;;;;;;;;4925122;29;20386;-95
2022/09/09 02:34:05;;;;;;;33.70;13.15;;;;;;;;;;4932517;29;20471;-94
2022/09/09 02:36:35;;;;;;;29.05;13.27;;;;;;;;;;4935040;29;20092;-93
2022/09/09 02:39:10;;;;;;;41.92;15.88;;;;;;;;;;4935249;29;20055;-94
2022/09/09 02:41:40;;;;;;;35.97;12.93;;;;;;;;;;4933971;29;20043;-91
2022/09/09 02:44:11;;;;;;;34.05;13.18;;;;;;;;;;4945306;29;20487;-94
2022/09/09 02:46:55;;;;;;;25.75;12.65;;;;;;;;;;4944303;29;20031;-92
2022/09/09 02:49:31;;;;;;;33.50;13.55;;;;;;;;;;4934631;29;20483;-92
2022/09/09 02:52:07;;;;;;;37.63;11.88;;;;;;;;;;4930545;29;20445;-93
2022/09/09 02:54:36;;;;;;;30.38;11.70;;;;;;;;;;4936627;29;20089;-94
2022/09/09 02:57:12;;;;;;;32.88;12.05;;;;;;;;;;4933354;29;20138;-94
2022/09/09 02:59:39;;;;;;;40.08;12.30;;;;;;;;;;4948507;28;20032;-93
2022/09/09 03:02:05;;;;;;;26.98;10.32;;;;;;;;;;4934873;29;20024;-93
2022/09/09 03:04:31;;;;;;;30.83;12.05;;;;;;;;;;4921471;29;20031;-92
2022/09/09 03:06:58;;;;;;;29.58;12.05;;;;;;;;;;4918124;29;20035;-93
2022/09/09 03:09:25;;;;;;;26.75;11.82;;;;;;;;;;4932014;29;20936;-94
2022/09/09 03:11:58;;;;;;;23.70;10.93;;;;;;;;;;4934329;29;20035;-95
2022/09/09 03:14:27;;;;;;;22.52;10.25;;;;;;;;;;4933516;29;20042;-93
2022/09/09 03:16:54;;;;;;;27.60;10.80;;;;;;;;;;4920223;29;20494;-94
2022/09/09 03:19:21;;;;;;;29.33;9.93;;;;;;;;;;4941230;28;20049;-93
2022/09/09 03:21:47;;;;;;;20.45;11.23;;;;;;;;;;4934749;29;20043;-94
2022/09/09 03:24:22;;;;;;;26.10;10.63;;;;;;;;;;4947173;28;20055;-91
2022/09/09 03:26:55;;;;;;;22.00;10.10;;;;;;;;;;4922067;29;20035;-91
2022/09/09 03:29:21;;;;;;;26.55;9.63;;;;;;;;;;4920274;29;20430;-94
2022/09/09 03:31:47;;;;;;;26.95;9.80;;;;;;;;;;4932763;29;20035;-93
2022/09/09 03:34:13;;;;;;;28.77;10.43;;;;;;;;;;4913062;29;20073;-92
2022/09/09 03:36:41;;;;;;;17.42;9.18;;;;;;;;;;4915331;29;20040;-91
2022/09/09 03:39:07;;;;;;;14.23;6.85;;;;;;;;;;4917128;29;20041;-92
2022/09/09 03:41:34;;;;;;;16.33;6.00;;;;;;;;;;4934294;29;20035;-93
2022/09/09 03:44:00;;;;;;;12.95;6.18;;;;;;;;;;4918606;29;20062;-94
2022/09/09 03:46:26;;;;;;;16.40;6.07;;;;;;;;;;4946204;28;20032;-94
2022/09/09 03:48:53;;;;;;;13.32;6.50;;;;;;;;;;4929104;29;20040;-94
2022/09/09 03:51:19;;;;;;;22.33;7.30;;;;;;;;;;4949269;28;20031;-93
2022/09/09 03:53:46;;;;;;;21.40;10.30;;;;;;;;;;4931201;29;20171;-93
2022/09/09 03:56:12;;;;;;;18.70;9.38;;;;;;;;;;4932909;29;20039;-95
2022/09/09 03:58:41;;;;;;;24.40;7.40;;;;;;;;;;4932561;28;20045;-93
2022/09/09 04:01:09;;;;;;;16.73;6.78;;;;;;;;;;4928358;29;20029;-92
2022/09/09 04:03:35;;;;;;;17.98;6.13;;;;;;;;;;4934853;28;20027;-93
2022/09/09 04:06:06;;;;;;;11.40;5.53;;;;;;;;;;4917398;29;20031;-92
2022/09/09 04:08:32;;;;;;;15.40;5.25;;;;;;;;;;4932153;29;20067;-92
2022/09/09 04:11:00;;;;;;;15.50;5.43;;;;;;;;;;4915098;29;20063;-94
2022/09/09 04:13:26;;;;;;;14.65;5.07;;;;;;;;;;4932622;28;20031;-92
2022/09/09 04:15:57;;;;;;;11.43;4.28;;;;;;;;;;4949181;28;20046;-92
2022/09/09 04:18:23;;;;;;;15.65;3.97;;;;;;;;;;4933900;29;20555;-94
2022/09/09 04:20:50;;;;;;;10.02;3.60;;;;;;;;;;4934015;29;20043;-94
2022/09/09 04:23:16;;;;;;;10.80;3.50;;;;;;;;;;4932992;28;20051;-92
2022/09/09 04:25:46;;;;;;;16.75;4.05;;;;;;;;;;4918887;29;20032;-92
2022/09/09 04:28:13;;;;;;;7.68;3.45;;;;;;;;;;4929765;29;20043;-91
2022/09/09 04:30:40;;;;;;;11.20;3.72;;;;;;;;;;4944022;28;20039;-93
2022/09/09 04:33:06;;;;;;;11.95;3.80;;;;;;;;;;4913693;29;20482;-93
2022/09/09 04:35:33;;;;;;;15.13;3.45;;;;;;;;;;4920876;29;20042;-93
2022/09/09 04:37:59;;;;;;;13.30;3.78;;;;;;;;;;4919303;29;20035;-93
2022/09/09 04:40:25;;;;;;;12.07;4.07;;;;;;;;;;4944475;29;20043;-94
2022/09/09 04:42:51;;;;;;;21.17;4.00;;;;;;;;;;4933079;29;20568;-93
2022/09/09 04:45:22;;;;;;;13.40;3.70;;;;;;;;;;4915955;29;20079;-91
2022/09/09 04:47:48;;;;;;;11.98;4.20;;;;;;;;;;4934353;29;20035;-92
2022/09/09 04:50:16;;;;;;;15.85;5.10;;;;;;;;;;4914355;28;20044;-94
2022/09/09 04:52:42;;;;;;;15.02;5.57;;;;;;;;;;4949125;29;20062;-95
2022/09/09 04:55:09;;;;;;;12.57;5.05;;;;;;;;;;4916129;29;20039;-92
2022/09/09 04:57:35;;;;;;;12.05;4.20;;;;;;;;;;4940226;28;20031;-92
2022/09/09 05:00:01;;;;;;;22.52;5.20;;;;;;;;;;4914226;29;20497;-91
2022/09/09 05:02:27;;;;;;;18.38;4.95;;;;;;;;;;4928257;29;20502;-93
2022/09/09 05:04:53;;;;;;;18.65;5.07;;;;;;;;;;4932708;29;20052;-93
2022/09/09 05:07:19;;;;;;;15.95;5.07;;;;;;;;;;4919248;29;20043;-93
2022/09/09 05:09:47;;;;;;;18.63;4.90;;;;;;;;;;4919761;29;20046;-93
2022/09/09 05:12:13;;;;;;;15.85;5.53;;;;;;;;;;4929952;29;20047;-93
2022/09/09 05:14:39;;;;;;;13.60;5.60;;;;;;;;;;4946318;28;20407;-94
2022/09/09 05:17:05;;;;;;;12.13;5.25;;;;;;;;;;4932694;29;20047;-94
2022/09/09 05:19:31;;;;;;;20.38;6.82;;;;;;;;;;4928049;29;20054;-94
2022/09/09 05:21:57;;;;;;;12.45;6.20;;;;;;;;;;4920448;29;20070;-95
2022/09/09 05:24:24;;;;;;;19.02;6.95;;;;;;;;;;4918347;28;20058;-96
2022/09/09 05:26:50;;;;;;;23.13;7.10;;;;;;;;;;4933318;29;20067;-94
2022/09/09 05:29:18;;;;;;;17.95;7.30;;;;;;;;;;4932051;29;20031;-92
2022/09/09 05:31:44;;;;;;;17.83;8.25;;;;;;;;;;4931023;29;20039;-93
2022/09/09 05:34:11;;;;;;;26.27;8.23;;;;;;;;;;4918035;29;20090;-93
2022/09/09 05:36:37;;;;;;;20.27;8.75;;;;;;;;;;4946260;28;20039;-94
2022/09/09 05:39:03;;;;;;;16.75;8.13;;;;;;;;;;4913559;29;20495;-93
2022/09/09 05:41:30;;;;;;;19.50;8.55;;;;;;;;;;4930540;29;20043;-94
2022/09/09 05:43:58;;;;;;;20.98;8.32;;;;;;;;;;4933745;28;20067;-93
2022/09/09 05:46:27;;;;;;;26.05;8.27;;;;;;;;;;4944282;28;20023;-94
2022/09/09 05:48:54;;;;;;;22.13;8.70;;;;;;;;;;4918027;29;20059;-93
2022/09/09 05:51:24;;;;;;;22.30;10.00;;;;;;;;;;4930510;29;20050;-92
2022/09/09 05:54:00;;;;;;;25.20;9.57;;;;;;;;;;4933592;29;20035;-93
2022/09/09 05:56:28;;;;;;;30.73;10.05;;;;;;;;;;4934062;29;20079;-93
2022/09/09 05:58:54;;;;;;;22.27;10.27;;;;;;;;;;4950407;29;20470;-94
2022/09/09 06:01:22;;;;;;;26.48;10.30;;;;;;;;;;4933730;29;20085;-92
2022/09/09 06:03:49;;;;;;;27.05;10.43;;;;;;;;;;4925732;29;20514;-91
2022/09/09 06:06:23;;;;;;;29.45;10.60;;;;;;;;;;4930531;29;20027;-91
2022/09/09 06:08:53;;;;;;;25.77;10.65;;;;;;;;;;4946878;28;20059;-92
2022/09/09 06:11:21;;;;;;;27.50;11.73;;;;;;;;;;4932112;29;20039;-92
2022/09/09 06:13:50;;;;;;;22.58;8.50;;;;;;;;;;4943579;29;20145;-89
2022/09/09 06:16:18;;;;;;;26.50;10.70;;;;;;;;;;4939031;29;20386;-90
2022/09/09 06:18:45;;;;;;;21.88;8.93;;;;;;;;;;4931739;29;20032;-89
2022/09/09 06:21:16;;;;;;;22.92;10.13;;;;;;;;;;4933769;29;20383;-90
2022/09/09 06:23:42;;;;;;;20.75;10.38;;;;;;;;;;4949553;28;20069;-90
2022/09/09 06:26:19;;;;;;;23.85;9.82;;;;;;;;;;4931097;29;20038;-89
2022/09/09 06:28:49;;;;;;;21.38;11.07;;;;;;;;;;4933183;29;20082;-89
2022/09/09 06:31:17;;;;;;;23.90;10.73;;;;;;;;;;4953452;28;20062;-89
2022/09/09 06:33:44;;;;;;;22.70;9.57;;;;;;;;;;4934140;29;20035;-92
2022/09/09 06:36:21;;;;;;;25.42;11.05;;;;;;;;;;4946208;29;20055;-91
2022/09/09 06:38:47;;;;;;;34.65;10.38;;;;;;;;;;4933042;29;20475;-91
2022/09/09 06:41:14;;;;;;;22.35;9.63;;;;;;;;;;4931733;29;20023;-92
2022/09/09 06:43:41;;;;;;;19.50;8.80;;;;;;;;;;4943749;28;20104;-91
2022/09/09 06:46:09;;;;;;;23.10;10.13;;;;;;;;;;4933743;29;20030;-90
2022/09/09 06:48:36;;;;;;;17.48;8.05;;;;;;;;;;4932267;29;20495;-90
2022/09/09 06:51:02;;;;;;;16.23;7.72;;;;;;;;;;4920023;29;20038;-91
2022/09/09 06:53:28;;;;;;;16.55;8.43;;;;;;;;;;4943432;29;20031;-92
2022/09/09 06:55:55;;;;;;;15.82;8.00;;;;;;;;;;4918314;29;20043;-91
2022/09/09 06:58:24;;;;;;;13.23;6.47;;;;;;;;;;4928916;29;20057;-91
2022/09/09 07:00:50;;;;;;;17.42;7.63;;;;;;;;;;4930592;28;20473;-91
2022/09/09 07:03:17;;;;;;;21.23;8.70;;;;;;;;;;4919072;28;20037;-91
2022/09/09 07:05:44;;;;;;;19.50;8.45;;;;;;;;;;4932744;29;20364;-92
2022/09/09 07:08:11;;;;;;;15.60;7.57;;;;;;;;;;4933110;29;20035;-93
2022/09/09 07:10:37;;;;;;;23.73;8.40;;;;;;;;;;4937188;29;20035;-93
2022/09/09 07:13:04;;;;;;;17.15;8.85;;;;;;;;;;4918287;29;20479;-92
2022/09/09 07:15:32;;;;;;;23.02;8.43;;;;;;;;;;4931234;29;20035;-93
2022/09/09 07:18:02;;;;;;;17.65;8.32;;;;;;;;;;4919969;29;20052;-93
2022/09/09 07:20:28;;;;;;;14.60;7.45;;;;;;;;;;4926945;29;20039;-93
2022/09/09 07:23:02;;;;;;;16.65;7.25;;;;;;;;;;4921113;28;20070;-90
2022/09/09 07:25:35;;;;;;;17.92;6.95;;;;;;;;;;4933350;29;20439;-91
2022/09/09 07:28:01;;;;;;;19.83;8.35;;;;;;;;;;4931359;29;20074;-92
2022/09/09 07:30:28;;;;;;;20.55;8.48;;;;;;;;;;4932505;29;20035;-92
2022/09/09 07:32:56;;;;;;;29.02;8.32;;;;;;;;;;4929940;28;20074;-93
2022/09/09 07:38:20;;;;;;;12.37;6.27;;;;;;;;;;4890479;29;20048;-94
2022/09/09 07:40:46;;;;;;;17.77;7.88;;;;;;;;;;4911514;29;20039;-93
2022/09/09 07:43:12;;;;;;;11.77;6.60;;;;;;;;;;4927647;29;20061;-92
2022/09/09 07:45:40;;;;;;;11.20;5.88;;;;;;;;;;4928504;29;20027;-93
2022/09/09 07:48:18;;;;;;;14.82;7.55;;;;;;;;;;4929832;29;20047;-93
2022/09/09 07:50:44;;;;;;;13.65;6.82;;;;;;;;;;4917159;29;20027;-92
2022/09/09 07:53:10;;;;;;;14.85;8.20;;;;;;;;;;4917584;29;20043;-93
2022/09/09 07:55:37;;;;;;;11.88;6.25;;;;;;;;;;4931773;29;20070;-93
2022/09/09 07:58:03;;;;;;;12.88;6.80;;;;;;;;;;4910258;28;20043;-92
2022/09/09 08:00:29;;;;;;;13.65;6.13;;;;;;;;;;4932073;28;20035;-92
2022/09/09 08:02:55;;;;;;;13.27;6.40;;;;;;;;;;4916100;29;20031;-91
2022/09/09 08:05:22;;;;;;;15.20;5.97;;;;;;;;;;4917358;29;20043;-92
2022/09/09 08:07:51;;;;;;;20.05;7.25;;;;;;;;;;4920501;29;20031;-92
2022/09/09 08:10:18;;;;;;;16.38;5.53;;;;;;;;;;4930909;28;20884;-92
2022/09/09 08:12:44;;;;;;;10.82;6.20;;;;;;;;;;4916804;28;20439;-92
2022/09/09 08:31:23;;;;;;;9.60;5.43;;;;;;;;;;4945656;23;20130;-93
2022/09/09 08:33:49;;;;;;;8.13;4.80;;;;;;;;;;4967673;28;20071;-94
2022/09/09 08:36:17;;;;;;;9.63;5.07;;;;;;;;;;4974462;28;20030;-94
2022/09/09 08:38:44;;;;;;;10.73;4.85;;;;;;;;;;4971467;28;20034;-95
2022/09/09 08:41:25;;;;;;;8.00;4.78;;;;;;;;;;4961012;28;20062;-94
2022/09/09 08:44:00;;;;;;;14.75;4.97;;;;;;;;;;4973565;28;20027;-94
2022/09/09 08:46:33;;;;;;;10.68;4.78;;;;;;;;;;4973948;28;20061;-94
2022/09/09 08:49:10;;;;;;;6.35;4.18;;;;;;;;;;4978218;28;20018;-94
2022/09/09 08:51:36;;;;;;;7.53;4.85;;;;;;;;;;4978311;28;20041;-94
2022/09/09 08:54:04;;;;;;;7.60;4.63;;;;;;;;;;4959654;28;20051;-95
2022/09/09 08:56:32;;;;;;;8.82;4.07;;;;;;;;;;4960303;28;20053;-94
2022/09/09 08:59:00;;;;;;;10.80;4.35;;;;;;;;;;4972688;28;20045;-94
2022/09/09 09:01:46;;;;;;;9.82;3.40;;;;;;;;;;4952798;28;20160;-94
2022/09/09 09:04:13;;;;;;;;;;;;;;;;;;4992884;28;20545;-93
2022/09/09 09:06:51;;;;;;;5.60;3.45;;;;;;;;;;4975365;28;20377;-94
2022/09/09 09:09:37;;;;;;;9.00;3.88;;;;;;;;;;4976376;28;20030;-95
2022/09/09 09:12:11;;;;;;;7.18;3.97;;;;;;;;;;4973483;28;20034;-94
2022/09/09 09:14:38;;;;;;;8.38;3.80;;;;;;;;;;4972431;28;20397;-93
2022/09/09 09:17:06;;;;;;;7.20;3.33;;;;;;;;;;4984984;28;20018;-94
2022/09/09 09:19:34;;;;;;;10.27;4.28;;;;;;;;;;4969961;28;20043;-95
2022/09/09 09:22:05;;;;;;;12.43;4.15;;;;;;;;;;4972896;28;20136;-95
2022/09/09 09:24:55;;;;;;;8.63;3.90;;;;;;;;;;4974898;28;20467;-94
2022/09/09 09:27:35;;;;;;;12.05;3.85;;;;;;;;;;4913671;29;20040;-94
2022/09/09 09:30:13;;;;;;;6.03;3.33;;;;;;;;;;4916632;29;20036;-94
2022/09/09 09:32:42;;;;;;;12.85;3.95;;;;;;;;;;4966295;28;20066;-95
2022/09/09 09:35:13;;;;;;;14.38;4.00;;;;;;;;;;4972290;28;20631;-93
2022/09/09 09:37:43;;;;;;;13.88;4.43;;;;;;;;;;4969749;28;20034;-95
2022/09/09 09:40:14;;;;;;;8.50;4.32;;;;;;;;;;4968956;28;20042;-95
2022/09/09 09:42:52;;;;;;;12.00;4.60;;;;;;;;;;4975682;28;21076;-95
2022/09/09 09:45:28;;;;;;;7.85;3.70;;;;;;;;;;4980202;28;20030;-95
2022/09/09 09:48:09;;;;;;;8.73;3.40;;;;;;;;;;4998632;28;20552;-94
2022/09/09 09:50:47;;;;;;;9.38;3.50;;;;;;;;;;4978394;28;20046;-95
2022/09/09 09:53:27;;;;;;;8.43;3.15;;;;;;;;;;4976484;28;20128;-95
2022/09/09 09:55:58;;;;;;;12.20;2.70;;;;;;;;;;4992502;28;20031;-91
2022/09/09 09:58:26;;;;;;;10.88;2.88;;;;;;;;;;4980013;28;20033;-94
2022/09/09 10:00:53;;;;;;;9.43;2.97;;;;;;;;;;4993244;28;20026;-91
2022/09/09 10:03:44;;;;;;;6.88;2.83;;;;;;;;;;4976595;28;20168;-93
2022/09/09 10:06:10;;;;;;;11.00;2.97;;;;;;;;;;4978679;28;20077;-91
2022/09/09 10:08:46;;;;;;;9.52;3.22;;;;;;;;;;4968659;28;20026;-92
2022/09/09 10:11:16;;;;;;;15.75;3.28;;;;;;;;;;4980876;28;20033;-93
2022/09/09 10:13:54;;;;;;;9.57;3.05;;;;;;;;;;4985588;28;20041;-94
2022/09/09 10:16:36;;;;;;;6.40;3.10;;;;;;;;;;4979911;28;20033;-94
2022/09/09 10:19:24;;;;;;;7.80;2.60;;;;;;;;;;4979578;28;20978;-94
2022/09/09 10:21:57;;;;;;;9.98;3.30;;;;;;;;;;4979804;28;20065;-94
2022/09/09 10:24:44;;;;;;;11.23;3.00;;;;;;;;;;5006238;28;20042;-93
2022/09/09 10:27:29;;;;;;;12.13;2.67;;;;;;;;;;4984311;28;20378;-96
2022/09/09 10:30:22;;;;;;;11.95;2.88;;;;;;;;;;5006663;28;20152;-95
2022/09/09 10:33:00;;;;;;;10.48;2.42;;;;;;;;;;4926459;28;20048;-96
2022/09/09 10:35:45;;;;;;;8.77;2.10;;;;;;;;;;4996774;23;20063;-90
2022/09/09 10:38:14;;;;;;;7.78;2.20;;;;;;;;;;4953122;28;20031;-90
2022/09/09 10:40:56;;;;;;;4.70;2.15;;;;;;;;;;4953117;28;20066;-90
2022/09/09 10:43:25;;;;;;;14.48;3.65;;;;;;;;;;4951370;28;20069;-90
2022/09/09 10:45:54;;;;;;;8.95;2.17;;;;;;;;;;4953491;28;20596;-89
2022/09/09 10:48:39;;;;;;;9.15;2.45;;;;;;;;;;4951787;28;20054;-91
2022/09/09 10:51:14;;;;;;;13.90;2.38;;;;;;;;;;4970645;28;20039;-90
2022/09/09 10:53:49;;;;;;;10.35;2.88;;;;;;;;;;4949989;28;20037;-90
2022/09/09 10:56:20;;;;;;;6.00;2.30;;;;;;;;;;4951359;28;20459;-90
2022/09/09 10:58:53;;;;;;;7.63;2.38;;;;;;;;;;4966210;28;20037;-90
2022/09/09 11:01:25;;;;;;;9.52;2.25;;;;;;;;;;4951785;28;20639;-90
2022/09/09 11:04:17;;;;;;;18.35;3.20;;;;;;;;;;4966561;28;20035;-89
2022/09/09 11:06:48;;;;;;;7.50;2.28;;;;;;;;;;4953250;28;20106;-91
2022/09/09 11:09:17;;;;;;;16.25;2.60;;;;;;;;;;4956424;28;21692;-91
2022/09/09 11:11:56;;;;;;;7.22;2.38;;;;;;;;;;4969307;28;20019;-91
2022/09/09 11:14:28;;;;;;;6.05;1.90;;;;;;;;;;4955027;28;20164;-93
2022/09/09 11:16:58;;;;;;;7.68;2.00;;;;;;;;;;4969855;28;20031;-89
2022/09/09 11:19:39;;;;;;;11.80;2.42;;;;;;;;;;4965052;28;20238;-89
2022/09/09 11:22:15;;;;;;;9.05;1.85;;;;;;;;;;4950619;28;20058;-89
2022/09/09 11:24:48;;;;;;;9.95;2.35;;;;;;;;;;4953483;28;20482;-88
2022/09/09 11:27:16;;;;;;;9.50;1.52;;;;;;;;;;4967894;28;20038;-89
2022/09/09 11:29:44;;;;;;;8.18;2.58;;;;;;;;;;4948338;28;20018;-89
2022/09/09 11:32:19;;;;;;;10.60;2.20;;;;;;;;;;4955403;28;20031;-89
2022/09/09 11:34:45;;;;;;;5.35;2.00;;;;;;;;;;4934318;28;20846;-89
2022/09/09 11:37:11;;;;;;;5.97;1.50;;;;;;;;;;4930577;28;20058;-90
2022/09/09 11:39:46;;;;;;;7.10;2.22;;;;;;;;;;4937199;29;20446;-91
2022/09/09 11:42:17;;;;;;;4.70;1.93;;;;;;;;;;4961725;28;20524;-88
2022/09/09 11:44:43;;;;;;;11.60;2.15;;;;;;;;;;4941678;29;20119;-91
2022/09/09 11:47:31;;;;;;;6.88;1.88;;;;;;;;;;4938540;29;20044;-91
2022/09/09 11:50:12;;;;;;;4.05;1.50;;;;;;;;;;4933203;29;20019;-90
2022/09/09 11:52:42;;;;;;;5.15;2.03;;;;;;;;;;4932825;28;20058;-88
2022/09/09 11:55:10;;;;;;;5.50;2.10;;;;;;;;;;4948551;28;20461;-88
2022/09/09 11:57:37;;;;;;;4.68;1.73;;;;;;;;;;4935309;28;20232;-88
2022/09/09 12:00:04;;;;;;;9.60;2.42;;;;;;;;;;4915584;29;20050;-88
2022/09/09 12:02:31;;;;;;;9.10;3.22;;;;;;;;;;4929911;28;20067;-89
2022/09/09 12:05:05;;;;;;;8.75;2.53;;;;;;;;;;4936428;28;20065;-89
2022/09/09 12:07:43;;;;;;;7.63;1.58;;;;;;;;;;4935151;29;20031;-89
2022/09/09 12:10:27;;;;;;;8.85;2.00;;;;;;;;;;4933406;29;20050;-89
2022/09/09 12:12:53;;;;;;;8.25;1.95;;;;;;;;;;4950155;28;20367;-89
2022/09/09 12:15:22;;;;;;;10.90;1.88;;;;;;;;;;4921135;28;20497;-89
2022/09/09 12:17:53;;;;;;;6.13;1.77;;;;;;;;;;4936558;28;20062;-89
2022/09/09 12:20:22;;;;;;;4.28;1.65;;;;;;;;;;4934870;28;20043;-89
2022/09/09 12:23:18;;;;;;;9.13;2.10;;;;;;;;;;4936169;29;20042;-89
2022/09/09 12:26:04;;;;;;;3.00;1.38;;;;;;;;;;4920303;28;20039;-89
2022/09/09 12:28:42;;;;;;;5.78;2.63;;;;;;;;;;4952061;28;20032;-90
2022/09/09 12:31:08;;;;;;;8.73;1.63;;;;;;;;;;4931629;28;20039;-89
2022/09/09 12:33:36;;;;;;;5.45;1.48;;;;;;;;;;4937495;28;20030;-89
2022/09/09 12:36:04;;;;;;;7.10;1.98;;;;;;;;;;4954125;28;20047;-89
2022/09/09 12:38:37;;;;;;;8.07;1.50;;;;;;;;;;4934768;29;20065;-89
2022/09/09 12:41:03;;;;;;;5.15;1.38;;;;;;;;;;4948396;28;20035;-89
2022/09/09 12:43:30;;;;;;;5.32;1.85;;;;;;;;;;4922637;29;20058;-89
2022/09/09 12:46:01;;;;;;;4.80;1.30;;;;;;;;;;4932824;29;20039;-89
2022/09/09 12:48:43;;;;;;;9.25;1.75;;;;;;;;;;4933901;29;20510;-89
2022/09/09 12:51:41;;;;;;;7.93;1.92;;;;;;;;;;4952838;28;20034;-89
2022/09/09 12:54:15;;;;;;;8.52;1.80;;;;;;;;;;4909836;29;20040;-89
2022/09/09 12:56:45;;;;;;;9.50;2.83;;;;;;;;;;4934876;28;20074;-90
2022/09/09 12:59:22;;;;;;;7.72;2.15;;;;;;;;;;4945996;28;20031;-89
2022/09/09 13:01:55;;;;;;;7.20;2.00;;;;;;;;;;4936621;28;20043;-89
2022/09/09 13:04:22;;;;;;;11.02;2.00;;;;;;;;;;4945380;28;20058;-89
2022/09/09 13:06:49;;;;;;;4.85;1.60;;;;;;;;;;4934566;29;20031;-89
2022/09/09 13:09:15;;;;;;;9.93;1.70;;;;;;;;;;4934486;29;20027;-89
2022/09/09 13:11:50;;;;;;;9.35;2.13;;;;;;;;;;4933712;29;20039;-89
2022/09/09 13:14:19;;;;;;;11.80;1.83;;;;;;;;;;4933473;28;20449;-89
2022/09/09 13:16:55;;;;;;;5.32;2.05;;;;;;;;;;4932095;29;20264;-88
2022/09/09 13:19:21;;;;;;;8.73;1.83;;;;;;;;;;4947801;28;20118;-89
2022/09/09 13:21:47;;;;;;;10.02;1.55;;;;;;;;;;4918879;29;20031;-89
2022/09/09 13:24:31;;;;;;;5.93;1.65;;;;;;;;;;4919166;28;20517;-89
2022/09/09 13:26:58;;;;;;;5.32;1.42;;;;;;;;;;4947021;28;20062;-89
2022/09/09 13:29:25;;;;;;;7.70;2.20;;;;;;;;;;4948144;28;20541;-89
2022/09/09 13:31:57;;;;;;;3.33;1.30;;;;;;;;;;4932613;29;20027;-89
2022/09/09 13:34:33;;;;;;;5.13;1.58;;;;;;;;;;4934893;28;20023;-89
2022/09/09 13:37:02;;;;;;;3.85;1.45;;;;;;;;;;4932354;28;20100;-89
2022/09/09 13:39:28;;;;;;;8.52;2.38;;;;;;;;;;4912851;29;20043;-89
2022/09/09 13:41:55;;;;;;;6.93;1.42;;;;;;;;;;4931276;29;20032;-89
2022/09/09 13:44:26;;;;;;;6.38;1.70;;;;;;;;;;4897284;29;20042;-89
2022/09/09 13:47:06;;;;;;;8.23;1.45;;;;;;;;;;4912319;29;20464;-89
2022/09/09 13:49:33;;;;;;;2.20;1.15;;;;;;;;;;4911368;29;20635;-89
2022/09/09 13:52:09;;;;;;;14.18;1.88;;;;;;;;;;4928746;29;21142;-89
2022/09/09 13:54:35;;;;;;;5.60;1.58;;;;;;;;;;4913051;29;20473;-89
2022/09/09 13:57:01;;;;;;;1.90;1.02;;;;;;;;;;4897168;29;20118;-89
2022/09/09 13:59:28;;;;;;;7.55;1.90;;;;;;;;;;4897432;29;20055;-89
2022/09/09 14:01:54;;;;;;;7.40;1.63;;;;;;;;;;4898122;29;20107;-89
2022/09/09 14:04:20;;;;;;;3.75;1.48;;;;;;;;;;4911768;29;20491;-89
2022/09/09 14:06:53;;;;;;;6.07;1.50;;;;;;;;;;4900951;29;20055;-89
2022/09/09 14:09:20;;;;;;;3.08;1.58;;;;;;;;;;4914801;29;20055;-89
2022/09/09 14:11:46;;;;;;;1.33;0.70;;;;;;;;;;4915047;29;20046;-89
2022/09/09 14:14:12;;;;;;;5.32;0.88;;;;;;;;;;4897990;29;20039;-89
2022/09/09 14:16:38;;;;;;;2.65;0.82;;;;;;;;;;4914894;29;20027;-89
2022/09/09 14:19:04;;;;;;;4.53;0.90;;;;;;;;;;4898025;29;20048;-89
2022/09/09 14:21:31;;;;;;;3.63;0.43;;;;;;;;;;4932157;29;20287;-87
2022/09/09 14:23:57;;;;;;;2.65;0.90;;;;;;;;;;4901714;29;20130;-89
2022/09/09 14:26:31;;;;;;;3.05;1.13;;;;;;;;;;4914001;29;20495;-89
2022/09/09 14:28:57;;;;;;;3.47;0.70;;;;;;;;;;4912902;29;20036;-88
2022/09/09 14:31:27;;;;;;;3.05;0.80;;;;;;;;;;4918236;29;20028;-88
2022/09/09 14:33:53;;;;;;;3.30;1.00;;;;;;;;;;4917614;29;20035;-89
2022/09/09 14:36:19;;;;;;;1.20;1.00;;;;;;;;;;4911608;28;20067;-89
2022/09/09 14:38:45;;;;;;;2.40;0.95;;;;;;;;;;4924184;28;20039;-89
2022/09/09 14:41:12;;;;;;;6.68;1.67;;;;;;;;;;4936182;28;20734;-89
2022/09/09 14:43:39;;;;;;;3.03;1.10;;;;;;;;;;4921073;28;20130;-89
2022/09/09 14:46:06;;;;;;;4.03;1.90;;;;;;;;;;4933680;29;20558;-89
2022/09/09 14:48:33;;;;;;;5.22;1.40;;;;;;;;;;4919989;28;20071;-89
2022/09/09 14:51:05;;;;;;;4.65;1.50;;;;;;;;;;4922534;29;20043;-90
2022/09/09 14:53:31;;;;;;;17.35;2.97;;;;;;;;;;4935243;29;20442;-92
2022/09/09 14:56:03;;;;;;;4.03;1.40;;;;;;;;;;4920008;29;20035;-93
2022/09/09 14:58:31;;;;;;;8.70;1.70;;;;;;;;;;4936386;29;20039;-93
2022/09/09 15:01:02;;;;;;;5.15;1.60;;;;;;;;;;4932354;29;20072;-93
2022/09/09 15:03:29;;;;;;;10.20;2.20;;;;;;;;;;4935536;29;20046;-93
2022/09/09 15:05:58;;;;;;;9.10;2.10;;;;;;;;;;4925180;29;20027;-94
2022/09/09 15:08:24;;;;;;;6.20;2.15;;;;;;;;;;4949495;28;20435;-94
2022/09/09 15:10:50;;;;;;;6.82;1.90;;;;;;;;;;4920754;29;20039;-92